sensor_id;sensor_type;location;lat;lon;timestamp;P1;durP1;ratioP1;P2;durP2;ratioP2
23001;SDS011;11667;51.706;4.856;2023-03-01T00:01:50;26.37;;;11.85;;
23001;SDS011;11667;51.706;4.856;2023-03-01T00:04:19;23.98;;;11.57;;
23001;SDS011;11667;51.706;4.856;2023-03-01T00:06:48;24.25;;;11.35;;
23001;SDS011;11667;51.706;4.856;2023-03-01T00:09:18;22.48;;;10.85;;
23001;SDS011;11667;51.706;4.856;2023-03-01T00:11:47;21.35;;;11.55;;
23001;SDS011;11667;51.706;4.856;2023-03-01T00:14:16;21.55;;;11.55;;
23001;SDS011;11667;51.706;4.856;2023-03-01T00:16:46;23.83;;;11.90;;
23001;SDS011;11667;51.706;4.856;2023-03-01T00:19:16;23.27;;;11.73;;
23001;SDS011;11667;51.706;4.856;2023-03-01T00:21:46;23.62;;;11.43;;
23001;SDS011;11667;51.706;4.856;2023-03-01T00:24:16;20.23;;;10.72;;
23001;SDS011;11667;51.706;4.856;2023-03-01T00:26:45;24.00;;;11.55;;
23001;SDS011;11667;51.706;4.856;2023-03-01T00:29:15;25.23;;;11.93;;
23001;SDS011;11667;51.706;4.856;2023-03-01T00:31:44;21.93;;;11.55;;
23001;SDS011;11667;51.706;4.856;2023-03-01T00:34:13;26.52;;;12.03;;
23001;SDS011;11667;51.706;4.856;2023-03-01T00:36:43;23.05;;;12.15;;
23001;SDS011;11667;51.706;4.856;2023-03-01T00:39:13;22.05;;;11.22;;
23001;SDS011;11667;51.706;4.856;2023-03-01T00:41:43;27.22;;;11.63;;
23001;SDS011;11667;51.706;4.856;2023-03-01T00:44:12;21.90;;;12.13;;
23001;SDS011;11667;51.706;4.856;2023-03-01T00:46:42;22.87;;;11.95;;
23001;SDS011;11667;51.706;4.856;2023-03-01T00:49:11;20.05;;;11.30;;
23001;SDS011;11667;51.706;4.856;2023-03-01T00:51:41;28.30;;;12.28;;
23001;SDS011;11667;51.706;4.856;2023-03-01T00:54:10;23.30;;;11.93;;
23001;SDS011;11667;51.706;4.856;2023-03-01T00:56:40;23.07;;;11.60;;
23001;SDS011;11667;51.706;4.856;2023-03-01T00:59:09;25.60;;;11.50;;
23001;SDS011;11667;51.706;4.856;2023-03-01T01:01:39;24.05;;;11.78;;
23001;SDS011;11667;51.706;4.856;2023-03-01T01:04:10;23.50;;;12.05;;
23001;SDS011;11667;51.706;4.856;2023-03-01T01:06:42;21.52;;;10.88;;
23001;SDS011;11667;51.706;4.856;2023-03-01T01:09:13;25.12;;;12.30;;
23001;SDS011;11667;51.706;4.856;2023-03-01T01:11:48;23.55;;;12.03;;
23001;SDS011;11667;51.706;4.856;2023-03-01T01:14:18;18.83;;;9.17;;
23001;SDS011;11667;51.706;4.856;2023-03-01T01:16:48;23.87;;;12.15;;
23001;SDS011;11667;51.706;4.856;2023-03-01T01:19:18;25.27;;;12.13;;
23001;SDS011;11667;51.706;4.856;2023-03-01T01:21:48;28.38;;;12.63;;
23001;SDS011;11667;51.706;4.856;2023-03-01T01:24:18;24.15;;;12.30;;
23001;SDS011;11667;51.706;4.856;2023-03-01T01:26:48;25.70;;;12.55;;
23001;SDS011;11667;51.706;4.856;2023-03-01T01:29:17;27.87;;;12.65;;
23001;SDS011;11667;51.706;4.856;2023-03-01T01:31:48;25.97;;;11.93;;
23001;SDS011;11667;51.706;4.856;2023-03-01T01:34:18;25.48;;;12.82;;
23001;SDS011;11667;51.706;4.856;2023-03-01T01:36:49;26.42;;;13.03;;
23001;SDS011;11667;51.706;4.856;2023-03-01T01:39:21;26.95;;;13.10;;
23001;SDS011;11667;51.706;4.856;2023-03-01T01:41:51;27.70;;;12.68;;
23001;SDS011;11667;51.706;4.856;2023-03-01T01:44:21;27.95;;;13.83;;
23001;SDS011;11667;51.706;4.856;2023-03-01T01:46:53;27.42;;;13.98;;
23001;SDS011;11667;51.706;4.856;2023-03-01T01:49:32;25.68;;;13.15;;
23001;SDS011;11667;51.706;4.856;2023-03-01T01:52:19;27.48;;;13.43;;
23001;SDS011;11667;51.706;4.856;2023-03-01T01:54:53;28.00;;;13.22;;
23001;SDS011;11667;51.706;4.856;2023-03-01T01:57:27;27.48;;;13.45;;
23001;SDS011;11667;51.706;4.856;2023-03-01T02:00:08;26.93;;;14.18;;
23001;SDS011;11667;51.706;4.856;2023-03-01T02:02:39;28.52;;;14.00;;
23001;SDS011;11667;51.706;4.856;2023-03-01T02:05:21;29.07;;;14.35;;
23001;SDS011;11667;51.706;4.856;2023-03-01T02:07:52;27.87;;;13.22;;
23001;SDS011;11667;51.706;4.856;2023-03-01T02:10:22;31.73;;;14.25;;
23001;SDS011;11667;51.706;4.856;2023-03-01T02:12:52;29.02;;;13.90;;
23001;SDS011;11667;51.706;4.856;2023-03-01T02:15:23;26.35;;;13.62;;
23001;SDS011;11667;51.706;4.856;2023-03-01T02:17:54;29.90;;;14.15;;
23001;SDS011;11667;51.706;4.856;2023-03-01T02:23:02;27.93;;;13.90;;
23001;SDS011;11667;51.706;4.856;2023-03-01T02:25:47;25.32;;;13.35;;
23001;SDS011;11667;51.706;4.856;2023-03-01T02:28:20;29.05;;;13.68;;
23001;SDS011;11667;51.706;4.856;2023-03-01T02:30:53;29.72;;;14.28;;
23001;SDS011;11667;51.706;4.856;2023-03-01T02:33:40;28.50;;;13.70;;
23001;SDS011;11667;51.706;4.856;2023-03-01T02:36:15;27.87;;;13.88;;
23001;SDS011;11667;51.706;4.856;2023-03-01T02:38:43;31.30;;;14.58;;
23001;SDS011;11667;51.706;4.856;2023-03-01T02:41:14;29.98;;;14.05;;
23001;SDS011;11667;51.706;4.856;2023-03-01T02:43:45;26.50;;;13.43;;
23001;SDS011;11667;51.706;4.856;2023-03-01T02:46:19;29.00;;;14.50;;
23001;SDS011;11667;51.706;4.856;2023-03-01T02:48:54;29.10;;;13.45;;
23001;SDS011;11667;51.706;4.856;2023-03-01T02:51:28;26.50;;;13.98;;
23001;SDS011;11667;51.706;4.856;2023-03-01T02:56:49;29.32;;;13.43;;
23001;SDS011;11667;51.706;4.856;2023-03-01T02:59:21;29.90;;;13.90;;
23001;SDS011;11667;51.706;4.856;2023-03-01T03:01:53;28.52;;;13.58;;
23001;SDS011;11667;51.706;4.856;2023-03-01T03:04:22;33.55;;;14.45;;
23001;SDS011;11667;51.706;4.856;2023-03-01T03:06:52;31.30;;;14.65;;
23001;SDS011;11667;51.706;4.856;2023-03-01T03:09:21;29.05;;;14.60;;
23001;SDS011;11667;51.706;4.856;2023-03-01T03:11:51;29.18;;;14.28;;
23001;SDS011;11667;51.706;4.856;2023-03-01T03:14:22;28.85;;;14.10;;
23001;SDS011;11667;51.706;4.856;2023-03-01T03:16:51;27.37;;;14.10;;
23001;SDS011;11667;51.706;4.856;2023-03-01T03:19:20;29.60;;;13.95;;
23001;SDS011;11667;51.706;4.856;2023-03-01T03:21:50;32.67;;;14.23;;
23001;SDS011;11667;51.706;4.856;2023-03-01T03:24:20;29.32;;;14.43;;
23001;SDS011;11667;51.706;4.856;2023-03-01T03:26:49;30.17;;;13.35;;
23001;SDS011;11667;51.706;4.856;2023-03-01T03:29:19;28.85;;;13.85;;
23001;SDS011;11667;51.706;4.856;2023-03-01T03:31:48;28.38;;;13.43;;
23001;SDS011;11667;51.706;4.856;2023-03-01T03:34:17;28.23;;;13.48;;
23001;SDS011;11667;51.706;4.856;2023-03-01T03:36:47;31.68;;;13.95;;
23001;SDS011;11667;51.706;4.856;2023-03-01T03:39:16;31.35;;;14.15;;
23001;SDS011;11667;51.706;4.856;2023-03-01T03:41:47;26.02;;;13.25;;
23001;SDS011;11667;51.706;4.856;2023-03-01T03:44:16;24.80;;;12.73;;
23001;SDS011;11667;51.706;4.856;2023-03-01T03:46:46;29.27;;;14.07;;
23001;SDS011;11667;51.706;4.856;2023-03-01T03:49:15;29.57;;;12.95;;
23001;SDS011;11667;51.706;4.856;2023-03-01T03:51:45;32.85;;;14.18;;
23001;SDS011;11667;51.706;4.856;2023-03-01T03:54:14;29.40;;;13.38;;
23001;SDS011;11667;51.706;4.856;2023-03-01T03:56:44;25.50;;;12.65;;
23001;SDS011;11667;51.706;4.856;2023-03-01T03:59:13;25.17;;;13.08;;
23001;SDS011;11667;51.706;4.856;2023-03-01T04:01:43;26.75;;;13.15;;
23001;SDS011;11667;51.706;4.856;2023-03-01T04:04:12;31.00;;;14.15;;
23001;SDS011;11667;51.706;4.856;2023-03-01T04:06:43;28.07;;;13.93;;
23001;SDS011;11667;51.706;4.856;2023-03-01T04:09:13;29.77;;;15.08;;
23001;SDS011;11667;51.706;4.856;2023-03-01T04:11:42;26.90;;;13.25;;
23001;SDS011;11667;51.706;4.856;2023-03-01T04:14:12;29.82;;;13.88;;
23001;SDS011;11667;51.706;4.856;2023-03-01T04:16:41;27.25;;;14.15;;
23001;SDS011;11667;51.706;4.856;2023-03-01T04:19:11;26.25;;;12.88;;
23001;SDS011;11667;51.706;4.856;2023-03-01T04:21:42;32.23;;;14.60;;
23001;SDS011;11667;51.706;4.856;2023-03-01T04:24:11;28.62;;;14.07;;
23001;SDS011;11667;51.706;4.856;2023-03-01T04:26:40;26.87;;;13.95;;
23001;SDS011;11667;51.706;4.856;2023-03-01T04:29:10;28.07;;;13.98;;
23001;SDS011;11667;51.706;4.856;2023-03-01T04:31:40;34.13;;;15.25;;
23001;SDS011;11667;51.706;4.856;2023-03-01T04:34:09;29.77;;;14.25;;
23001;SDS011;11667;51.706;4.856;2023-03-01T04:36:38;32.88;;;13.90;;
23001;SDS011;11667;51.706;4.856;2023-03-01T04:39:08;31.42;;;14.05;;
23001;SDS011;11667;51.706;4.856;2023-03-01T04:41:39;31.10;;;14.07;;
23001;SDS011;11667;51.706;4.856;2023-03-01T04:44:10;20.65;;;10.45;;
23001;SDS011;11667;51.706;4.856;2023-03-01T04:46:40;34.25;;;15.05;;
23001;SDS011;11667;51.706;4.856;2023-03-01T04:49:09;29.12;;;15.38;;
23001;SDS011;11667;51.706;4.856;2023-03-01T04:51:38;30.65;;;15.30;;
23001;SDS011;11667;51.706;4.856;2023-03-01T04:54:08;28.23;;;13.85;;
23001;SDS011;11667;51.706;4.856;2023-03-01T04:56:37;29.63;;;14.18;;
23001;SDS011;11667;51.706;4.856;2023-03-01T04:59:07;31.27;;;14.50;;
23001;SDS011;11667;51.706;4.856;2023-03-01T05:01:37;30.00;;;15.00;;
23001;SDS011;11667;51.706;4.856;2023-03-01T05:04:06;29.55;;;14.60;;
23001;SDS011;11667;51.706;4.856;2023-03-01T05:06:37;31.20;;;14.68;;
23001;SDS011;11667;51.706;4.856;2023-03-01T05:09:07;27.77;;;14.63;;
23001;SDS011;11667;51.706;4.856;2023-03-01T05:11:36;31.48;;;15.08;;
23001;SDS011;11667;51.706;4.856;2023-03-01T05:14:06;32.03;;;14.58;;
23001;SDS011;11667;51.706;4.856;2023-03-01T05:16:36;36.83;;;15.25;;
23001;SDS011;11667;51.706;4.856;2023-03-01T05:19:05;30.62;;;15.10;;
23001;SDS011;11667;51.706;4.856;2023-03-01T05:21:37;31.48;;;14.33;;
23001;SDS011;11667;51.706;4.856;2023-03-01T05:24:08;29.37;;;13.18;;
23001;SDS011;11667;51.706;4.856;2023-03-01T05:26:39;27.95;;;13.98;;
23001;SDS011;11667;51.706;4.856;2023-03-01T05:29:09;29.70;;;13.95;;
23001;SDS011;11667;51.706;4.856;2023-03-01T05:31:38;29.95;;;14.40;;
23001;SDS011;11667;51.706;4.856;2023-03-01T05:34:08;26.70;;;13.83;;
23001;SDS011;11667;51.706;4.856;2023-03-01T05:36:39;28.07;;;13.62;;
23001;SDS011;11667;51.706;4.856;2023-03-01T05:39:09;27.70;;;13.60;;
23001;SDS011;11667;51.706;4.856;2023-03-01T05:41:38;25.88;;;13.75;;
23001;SDS011;11667;51.706;4.856;2023-03-01T05:44:08;27.73;;;13.98;;
23001;SDS011;11667;51.706;4.856;2023-03-01T05:46:39;26.45;;;13.40;;
23001;SDS011;11667;51.706;4.856;2023-03-01T05:49:08;25.05;;;12.90;;
23001;SDS011;11667;51.706;4.856;2023-03-01T05:51:38;25.45;;;13.08;;
23001;SDS011;11667;51.706;4.856;2023-03-01T05:54:08;26.42;;;12.58;;
23001;SDS011;11667;51.706;4.856;2023-03-01T05:56:38;25.05;;;12.98;;
23001;SDS011;11667;51.706;4.856;2023-03-01T05:59:07;23.92;;;13.20;;
23001;SDS011;11667;51.706;4.856;2023-03-01T06:01:37;27.67;;;12.55;;
23001;SDS011;11667;51.706;4.856;2023-03-01T06:04:06;27.32;;;13.18;;
23001;SDS011;11667;51.706;4.856;2023-03-01T06:06:37;27.65;;;12.45;;
23001;SDS011;11667;51.706;4.856;2023-03-01T06:09:07;27.10;;;13.15;;
23001;SDS011;11667;51.706;4.856;2023-03-01T06:11:37;26.75;;;12.75;;
23001;SDS011;11667;51.706;4.856;2023-03-01T06:14:07;26.77;;;12.70;;
23001;SDS011;11667;51.706;4.856;2023-03-01T06:16:38;25.07;;;12.33;;
23001;SDS011;11667;51.706;4.856;2023-03-01T06:19:07;27.60;;;13.15;;
23001;SDS011;11667;51.706;4.856;2023-03-01T06:21:37;22.93;;;12.05;;
23001;SDS011;11667;51.706;4.856;2023-03-01T06:24:06;26.07;;;12.50;;
23001;SDS011;11667;51.706;4.856;2023-03-01T06:26:36;25.20;;;12.18;;
23001;SDS011;11667;51.706;4.856;2023-03-01T06:29:05;25.25;;;12.25;;
23001;SDS011;11667;51.706;4.856;2023-03-01T06:31:36;24.67;;;12.58;;
23001;SDS011;11667;51.706;4.856;2023-03-01T06:34:05;29.50;;;12.60;;
23001;SDS011;11667;51.706;4.856;2023-03-01T06:36:35;28.23;;;12.78;;
23001;SDS011;11667;51.706;4.856;2023-03-01T06:39:04;26.50;;;13.08;;
23001;SDS011;11667;51.706;4.856;2023-03-01T06:41:34;25.12;;;12.58;;
23001;SDS011;11667;51.706;4.856;2023-03-01T06:44:03;25.40;;;12.55;;
23001;SDS011;11667;51.706;4.856;2023-03-01T06:46:32;26.73;;;12.80;;
23001;SDS011;11667;51.706;4.856;2023-03-01T06:49:02;26.60;;;12.30;;
23001;SDS011;11667;51.706;4.856;2023-03-01T06:51:33;30.77;;;12.85;;
23001;SDS011;11667;51.706;4.856;2023-03-01T06:54:04;23.30;;;12.33;;
23001;SDS011;11667;51.706;4.856;2023-03-01T06:56:33;27.13;;;13.28;;
23001;SDS011;11667;51.706;4.856;2023-03-01T06:59:03;23.80;;;12.35;;
23001;SDS011;11667;51.706;4.856;2023-03-01T07:01:32;25.72;;;12.30;;
23001;SDS011;11667;51.706;4.856;2023-03-01T07:04:02;26.70;;;13.08;;
23001;SDS011;11667;51.706;4.856;2023-03-01T07:06:31;24.07;;;12.75;;
23001;SDS011;11667;51.706;4.856;2023-03-01T07:09:01;24.30;;;12.40;;
23001;SDS011;11667;51.706;4.856;2023-03-01T07:11:31;27.90;;;13.08;;
23001;SDS011;11667;51.706;4.856;2023-03-01T07:14:00;24.12;;;12.18;;
23001;SDS011;11667;51.706;4.856;2023-03-01T07:16:30;25.85;;;12.78;;
23001;SDS011;11667;51.706;4.856;2023-03-01T07:19:01;27.90;;;13.28;;
23001;SDS011;11667;51.706;4.856;2023-03-01T07:21:30;29.18;;;13.48;;
23001;SDS011;11667;51.706;4.856;2023-03-01T07:23:59;22.37;;;12.05;;
23001;SDS011;11667;51.706;4.856;2023-03-01T07:26:29;18.07;;;9.95;;
23001;SDS011;11667;51.706;4.856;2023-03-01T07:28:59;18.23;;;9.25;;
23001;SDS011;11667;51.706;4.856;2023-03-01T07:31:29;15.28;;;9.10;;
23001;SDS011;11667;51.706;4.856;2023-03-01T07:33:58;16.67;;;8.65;;
23001;SDS011;11667;51.706;4.856;2023-03-01T07:36:27;18.05;;;8.75;;
23001;SDS011;11667;51.706;4.856;2023-03-01T07:38:57;17.55;;;9.30;;
23001;SDS011;11667;51.706;4.856;2023-03-01T07:41:28;14.40;;;8.98;;
23001;SDS011;11667;51.706;4.856;2023-03-01T07:43:58;15.00;;;8.60;;
23001;SDS011;11667;51.706;4.856;2023-03-01T07:46:27;14.93;;;8.90;;
23001;SDS011;11667;51.706;4.856;2023-03-01T07:48:57;14.47;;;8.45;;
23001;SDS011;11667;51.706;4.856;2023-03-01T07:51:26;14.87;;;8.75;;
23001;SDS011;11667;51.706;4.856;2023-03-01T07:53:56;14.60;;;8.80;;
23001;SDS011;11667;51.706;4.856;2023-03-01T07:56:25;14.33;;;8.55;;
23001;SDS011;11667;51.706;4.856;2023-03-01T07:58:54;14.10;;;8.58;;
23001;SDS011;11667;51.706;4.856;2023-03-01T08:01:24;15.63;;;9.00;;
23001;SDS011;11667;51.706;4.856;2023-03-01T08:03:53;14.18;;;8.35;;
23001;SDS011;11667;51.706;4.856;2023-03-01T08:06:22;13.88;;;8.78;;
23001;SDS011;11667;51.706;4.856;2023-03-01T08:08:52;13.43;;;8.15;;
23001;SDS011;11667;51.706;4.856;2023-03-01T08:11:23;15.80;;;8.85;;
23001;SDS011;11667;51.706;4.856;2023-03-01T08:13:53;15.88;;;8.78;;
23001;SDS011;11667;51.706;4.856;2023-03-01T08:16:22;14.58;;;7.90;;
23001;SDS011;11667;51.706;4.856;2023-03-01T08:18:52;15.93;;;8.45;;
23001;SDS011;11667;51.706;4.856;2023-03-01T08:21:23;13.75;;;8.33;;
23001;SDS011;11667;51.706;4.856;2023-03-01T08:23:52;14.00;;;7.97;;
23001;SDS011;11667;51.706;4.856;2023-03-01T08:26:22;12.78;;;7.70;;
23001;SDS011;11667;51.706;4.856;2023-03-01T08:28:51;13.60;;;8.10;;
23001;SDS011;11667;51.706;4.856;2023-03-01T08:33:55;17.70;;;8.47;;
23001;SDS011;11667;51.706;4.856;2023-03-01T08:36:30;13.03;;;7.45;;
23001;SDS011;11667;51.706;4.856;2023-03-01T08:39:00;14.93;;;7.70;;
23001;SDS011;11667;51.706;4.856;2023-03-01T08:41:30;13.18;;;7.53;;
23001;SDS011;11667;51.706;4.856;2023-03-01T08:44:00;16.73;;;7.40;;
23001;SDS011;11667;51.706;4.856;2023-03-01T08:46:31;13.98;;;7.67;;
23001;SDS011;11667;51.706;4.856;2023-03-01T08:49:04;12.45;;;7.30;;
23001;SDS011;11667;51.706;4.856;2023-03-01T08:51:35;12.60;;;7.85;;
23001;SDS011;11667;51.706;4.856;2023-03-01T08:54:05;12.40;;;7.40;;
23001;SDS011;11667;51.706;4.856;2023-03-01T08:56:37;13.15;;;8.03;;
23001;SDS011;11667;51.706;4.856;2023-03-01T08:59:07;10.25;;;6.83;;
23001;SDS011;11667;51.706;4.856;2023-03-01T09:01:37;11.50;;;7.53;;
23001;SDS011;11667;51.706;4.856;2023-03-01T09:04:07;11.45;;;7.47;;
23001;SDS011;11667;51.706;4.856;2023-03-01T09:06:37;11.22;;;7.45;;
23001;SDS011;11667;51.706;4.856;2023-03-01T09:09:10;13.48;;;7.67;;
23001;SDS011;11667;51.706;4.856;2023-03-01T09:11:44;13.70;;;7.58;;
23001;SDS011;11667;51.706;4.856;2023-03-01T09:14:14;11.88;;;7.10;;
23001;SDS011;11667;51.706;4.856;2023-03-01T09:16:44;12.75;;;7.58;;
23001;SDS011;11667;51.706;4.856;2023-03-01T09:19:14;12.58;;;7.33;;
23001;SDS011;11667;51.706;4.856;2023-03-01T09:21:43;11.97;;;7.60;;
23001;SDS011;11667;51.706;4.856;2023-03-01T09:24:15;11.88;;;7.45;;
23001;SDS011;11667;51.706;4.856;2023-03-01T09:26:44;14.38;;;7.65;;
23001;SDS011;11667;51.706;4.856;2023-03-01T09:29:15;12.18;;;7.65;;
23001;SDS011;11667;51.706;4.856;2023-03-01T09:31:45;12.20;;;7.28;;
23001;SDS011;11667;51.706;4.856;2023-03-01T09:34:15;13.18;;;8.53;;
23001;SDS011;11667;51.706;4.856;2023-03-01T09:36:46;9.45;;;6.85;;
23001;SDS011;11667;51.706;4.856;2023-03-01T09:39:15;11.38;;;7.95;;
23001;SDS011;11667;51.706;4.856;2023-03-01T09:42:10;12.23;;;7.47;;
23001;SDS011;11667;51.706;4.856;2023-03-01T09:47:16;11.83;;;7.30;;
23001;SDS011;11667;51.706;4.856;2023-03-01T09:49:43;10.00;;;6.90;;
23001;SDS011;11667;51.706;4.856;2023-03-01T09:52:25;10.40;;;7.40;;
23001;SDS011;11667;51.706;4.856;2023-03-01T09:55:00;11.05;;;7.50;;
23001;SDS011;11667;51.706;4.856;2023-03-01T10:00:26;10.55;;;6.80;;
23001;SDS011;11667;51.706;4.856;2023-03-01T10:11:42;15.23;;;7.03;;
23001;SDS011;11667;51.706;4.856;2023-03-01T10:17:03;10.32;;;6.05;;
23001;SDS011;11667;51.706;4.856;2023-03-01T10:22:15;9.10;;;5.62;;
23001;SDS011;11667;51.706;4.856;2023-03-01T10:24:44;14.65;;;6.15;;
23001;SDS011;11667;51.706;4.856;2023-03-01T10:27:19;9.70;;;5.95;;
23001;SDS011;11667;51.706;4.856;2023-03-01T10:30:03;8.28;;;5.62;;
23001;SDS011;11667;51.706;4.856;2023-03-01T10:32:38;9.68;;;5.62;;
23001;SDS011;11667;51.706;4.856;2023-03-01T10:38:02;10.20;;;5.65;;
23001;SDS011;11667;51.706;4.856;2023-03-01T10:40:33;10.90;;;5.90;;
23001;SDS011;11667;51.706;4.856;2023-03-01T10:43:04;9.40;;;5.70;;
23001;SDS011;11667;51.706;4.856;2023-03-01T10:45:35;8.35;;;5.25;;
23001;SDS011;11667;51.706;4.856;2023-03-01T10:48:17;9.30;;;5.43;;
23001;SDS011;11667;51.706;4.856;2023-03-01T10:50:50;9.18;;;5.67;;
23001;SDS011;11667;51.706;4.856;2023-03-01T10:53:35;9.35;;;5.80;;
23001;SDS011;11667;51.706;4.856;2023-03-01T10:56:11;7.83;;;5.50;;
23001;SDS011;11667;51.706;4.856;2023-03-01T10:59:20;8.90;;;6.05;;
23001;SDS011;11667;51.706;4.856;2023-03-01T11:01:28;9.88;;;5.40;;
23001;SDS011;11667;51.706;4.856;2023-03-01T11:06:40;11.45;;;6.05;;
23001;SDS011;11667;51.706;4.856;2023-03-01T11:09:14;8.80;;;5.40;;
23001;SDS011;11667;51.706;4.856;2023-03-01T11:11:44;8.45;;;5.35;;
23001;SDS011;11667;51.706;4.856;2023-03-01T11:14:22;8.78;;;5.00;;
23001;SDS011;11667;51.706;4.856;2023-03-01T11:17:03;8.73;;;4.97;;
23001;SDS011;11667;51.706;4.856;2023-03-01T11:19:30;8.45;;;5.40;;
23001;SDS011;11667;51.706;4.856;2023-03-01T11:24:34;8.57;;;5.20;;
23001;SDS011;11667;51.706;4.856;2023-03-01T11:27:14;9.25;;;5.40;;
23001;SDS011;11667;51.706;4.856;2023-03-01T11:32:45;8.93;;;5.37;;
23001;SDS011;11667;51.706;4.856;2023-03-01T11:35:23;7.28;;;4.97;;
23001;SDS011;11667;51.706;4.856;2023-03-01T11:44:03;8.58;;;5.20;;
23001;SDS011;11667;51.706;4.856;2023-03-01T11:47:02;10.50;;;5.35;;
23001;SDS011;11667;51.706;4.856;2023-03-01T11:52:58;8.23;;;5.70;;
23001;SDS011;11667;51.706;4.856;2023-03-01T11:58:40;8.10;;;5.28;;
23001;SDS011;11667;51.706;4.856;2023-03-01T12:04:49;10.88;;;5.90;;
23001;SDS011;11667;51.706;4.856;2023-03-01T12:15:20;11.53;;;6.70;;
23001;SDS011;11667;51.706;4.856;2023-03-01T12:26:33;9.50;;;6.35;;
23001;SDS011;11667;51.706;4.856;2023-03-01T12:34:54;16.93;;;7.95;;
23001;SDS011;11667;51.706;4.856;2023-03-01T12:43:22;11.18;;;7.05;;
23001;SDS011;11667;51.706;4.856;2023-03-01T12:51:34;12.75;;;6.97;;
23001;SDS011;11667;51.706;4.856;2023-03-01T12:54:11;11.63;;;7.78;;
23001;SDS011;11667;51.706;4.856;2023-03-01T12:56:37;10.95;;;7.10;;
23001;SDS011;11667;51.706;4.856;2023-03-01T12:59:11;11.95;;;7.47;;
23001;SDS011;11667;51.706;4.856;2023-03-01T13:01:53;11.55;;;7.25;;
23001;SDS011;11667;51.706;4.856;2023-03-01T13:04:51;11.73;;;7.53;;
23001;SDS011;11667;51.706;4.856;2023-03-01T13:07:22;9.95;;;6.92;;
23001;SDS011;11667;51.706;4.856;2023-03-01T13:13:02;12.23;;;7.25;;
23001;SDS011;11667;51.706;4.856;2023-03-01T13:15:36;14.23;;;6.92;;
23001;SDS011;11667;51.706;4.856;2023-03-01T13:39:03;11.10;;;7.05;;
23001;SDS011;11667;51.706;4.856;2023-03-01T13:49:43;11.40;;;7.55;;
23001;SDS011;11667;51.706;4.856;2023-03-01T13:57:50;13.10;;;7.92;;
23001;SDS011;11667;51.706;4.856;2023-03-01T14:00:29;12.47;;;7.50;;
23001;SDS011;11667;51.706;4.856;2023-03-01T14:05:53;10.63;;;7.30;;
23001;SDS011;11667;51.706;4.856;2023-03-01T14:08:36;12.45;;;7.35;;
23001;SDS011;11667;51.706;4.856;2023-03-01T14:11:20;13.05;;;8.35;;
23001;SDS011;11667;51.706;4.856;2023-03-01T14:16:49;12.15;;;7.58;;
23001;SDS011;11667;51.706;4.856;2023-03-01T14:19:26;11.35;;;7.12;;
23001;SDS011;11667;51.706;4.856;2023-03-01T14:21:58;12.28;;;7.45;;
23001;SDS011;11667;51.706;4.856;2023-03-01T14:24:49;11.83;;;7.37;;
23001;SDS011;11667;51.706;4.856;2023-03-01T14:27:21;11.10;;;7.22;;
23001;SDS011;11667;51.706;4.856;2023-03-01T14:29:57;13.75;;;8.40;;
23001;SDS011;11667;51.706;4.856;2023-03-01T14:32:29;16.40;;;9.10;;
23001;SDS011;11667;51.706;4.856;2023-03-01T14:35:00;15.38;;;9.00;;
23001;SDS011;11667;51.706;4.856;2023-03-01T14:37:30;15.45;;;9.30;;
23001;SDS011;11667;51.706;4.856;2023-03-01T14:40:02;15.18;;;8.18;;
23001;SDS011;11667;51.706;4.856;2023-03-01T14:42:39;13.30;;;8.00;;
23001;SDS011;11667;51.706;4.856;2023-03-01T14:45:03;11.70;;;7.33;;
23001;SDS011;11667;51.706;4.856;2023-03-01T14:47:34;11.83;;;7.30;;
23001;SDS011;11667;51.706;4.856;2023-03-01T14:50:07;15.05;;;7.75;;
23001;SDS011;11667;51.706;4.856;2023-03-01T14:52:39;17.85;;;7.87;;
23001;SDS011;11667;51.706;4.856;2023-03-01T14:55:21;12.35;;;7.00;;
23001;SDS011;11667;51.706;4.856;2023-03-01T14:57:48;11.43;;;7.03;;
23001;SDS011;11667;51.706;4.856;2023-03-01T15:00:23;14.23;;;7.37;;
23001;SDS011;11667;51.706;4.856;2023-03-01T15:02:56;11.70;;;7.00;;
23001;SDS011;11667;51.706;4.856;2023-03-01T15:05:30;10.32;;;6.42;;
23001;SDS011;11667;51.706;4.856;2023-03-01T15:08:01;13.55;;;7.33;;
23001;SDS011;11667;51.706;4.856;2023-03-01T15:10:32;10.43;;;6.92;;
23001;SDS011;11667;51.706;4.856;2023-03-01T15:13:22;16.73;;;6.70;;
23001;SDS011;11667;51.706;4.856;2023-03-01T15:15:53;13.70;;;6.83;;
23001;SDS011;11667;51.706;4.856;2023-03-01T15:18:28;13.65;;;7.37;;
23001;SDS011;11667;51.706;4.856;2023-03-01T15:21:08;13.03;;;7.05;;
23001;SDS011;11667;51.706;4.856;2023-03-01T15:23:40;11.53;;;7.03;;
23001;SDS011;11667;51.706;4.856;2023-03-01T15:28:55;13.85;;;8.13;;
23001;SDS011;11667;51.706;4.856;2023-03-01T15:31:32;12.35;;;7.10;;
23001;SDS011;11667;51.706;4.856;2023-03-01T15:36:55;9.68;;;6.10;;
23001;SDS011;11667;51.706;4.856;2023-03-01T15:39:37;12.10;;;6.80;;
23001;SDS011;11667;51.706;4.856;2023-03-01T15:42:35;10.43;;;6.65;;
23001;SDS011;11667;51.706;4.856;2023-03-01T15:47:48;13.62;;;6.10;;
23001;SDS011;11667;51.706;4.856;2023-03-01T15:50:25;13.48;;;6.03;;
23001;SDS011;11667;51.706;4.856;2023-03-01T15:52:56;11.15;;;6.22;;
23001;SDS011;11667;51.706;4.856;2023-03-01T15:55:28;12.13;;;6.75;;
23001;SDS011;11667;51.706;4.856;2023-03-01T15:58:03;14.23;;;8.03;;
23001;SDS011;11667;51.706;4.856;2023-03-01T16:00:34;17.37;;;7.87;;
23001;SDS011;11667;51.706;4.856;2023-03-01T16:03:03;15.65;;;8.33;;
23001;SDS011;11667;51.706;4.856;2023-03-01T16:05:34;11.65;;;6.62;;
23001;SDS011;11667;51.706;4.856;2023-03-01T16:08:04;11.73;;;6.83;;
23001;SDS011;11667;51.706;4.856;2023-03-01T16:10:34;11.83;;;6.95;;
23001;SDS011;11667;51.706;4.856;2023-03-01T16:13:04;13.95;;;6.40;;
23001;SDS011;11667;51.706;4.856;2023-03-01T16:15:34;9.88;;;6.22;;
23001;SDS011;11667;51.706;4.856;2023-03-01T16:18:03;11.70;;;6.60;;
23001;SDS011;11667;51.706;4.856;2023-03-01T16:20:37;12.25;;;6.60;;
23001;SDS011;11667;51.706;4.856;2023-03-01T16:23:08;11.35;;;6.45;;
23001;SDS011;11667;51.706;4.856;2023-03-01T16:25:38;13.53;;;6.35;;
23001;SDS011;11667;51.706;4.856;2023-03-01T16:28:07;11.90;;;6.62;;
23001;SDS011;11667;51.706;4.856;2023-03-01T16:30:38;11.45;;;6.65;;
23001;SDS011;11667;51.706;4.856;2023-03-01T16:33:07;12.50;;;7.00;;
23001;SDS011;11667;51.706;4.856;2023-03-01T16:35:39;14.00;;;7.62;;
23001;SDS011;11667;51.706;4.856;2023-03-01T16:38:09;11.48;;;6.12;;
23001;SDS011;11667;51.706;4.856;2023-03-01T16:40:39;11.00;;;6.53;;
23001;SDS011;11667;51.706;4.856;2023-03-01T16:43:11;10.58;;;6.80;;
23001;SDS011;11667;51.706;4.856;2023-03-01T16:45:40;11.10;;;6.58;;
23001;SDS011;11667;51.706;4.856;2023-03-01T16:48:12;13.83;;;7.47;;
23001;SDS011;11667;51.706;4.856;2023-03-01T16:50:42;19.30;;;8.78;;
23001;SDS011;11667;51.706;4.856;2023-03-01T16:53:11;22.42;;;9.48;;
23001;SDS011;11667;51.706;4.856;2023-03-01T16:55:41;21.97;;;11.28;;
23001;SDS011;11667;51.706;4.856;2023-03-01T16:58:12;23.95;;;12.23;;
23001;SDS011;11667;51.706;4.856;2023-03-01T17:00:43;22.48;;;11.38;;
23001;SDS011;11667;51.706;4.856;2023-03-01T17:03:12;19.60;;;9.03;;
23001;SDS011;11667;51.706;4.856;2023-03-01T17:05:43;17.25;;;9.15;;
23001;SDS011;11667;51.706;4.856;2023-03-01T17:08:13;26.27;;;12.20;;
23001;SDS011;11667;51.706;4.856;2023-03-01T17:10:42;28.80;;;14.23;;
23001;SDS011;11667;51.706;4.856;2023-03-01T17:13:12;24.40;;;11.55;;
23001;SDS011;11667;51.706;4.856;2023-03-01T17:15:41;20.48;;;10.90;;